Aeroporto :
LOGIN :

Iscrizione | Disclaimer

   EN    FR    IT 

 










Sommario :    VFR   VFR Marginale   IFR   IFR Intensivo   IFR Molto Intensivo
Visibilità : 
Base nubi : 
>= 8 km
>= 3000ft
5 / 8 km
1000 / 3000 ft
1500m / 5 km
500 / 1000 ft
800 / 1500m
200 / 500 ft
< 800m
< 200 ft
Simboli :   Temporali  Nebbia  Neve Forte  Precipitazioni Forti  Vento > 20 kt
SIGMETs :   Varie  Temporali  Ghiacco  Turbolenza  Onda orograficha  Ceneri Vulcaniche






- Altitudine del aeroporto : 463 ft
- Codice IATA : SZY
- AEROPORTO CHIUSO.


EPSY - Szczytno

ULTIMO METAR :
  • 251100Z 25007KT 220V280 9000 OVC008 03/02 Q1016

METARs OBSOLETI :
  • 251030Z 26007KT 220V300 9000 OVC007 03/02 Q1016
  • 251000Z 26008KT 220V290 7000 OVC007 03/02 Q1016
  • 250930Z 25010KT 210V280 6000 OVC006 03/02 Q1016
  • 250900Z 26008KT 220V300 7000 OVC005 03/02 Q1016
  • 250830Z 25008KT 220V300 3100 BR OVC004 03/03 Q1016

TAF TAF EPSY
Valido dal 25 a 09 ore il 25 a 18 ore UTC


250830Z 2509/2518 26008KT 7000 OVC008
TEMPO 2509/2512 3500 -RADZ BR OVC004



MetMap, La meteo Aeronautica in un colpo d'occhio ! - Copyright ORBIFLY Dicembre 2007 - Disclaimer

ORBIFLY MET'MAP TEAM :

Programmazione e sviluppo : Alexandra Zaïnal
Concezione : Baudouin d'Aumeries
Aiuto per la programmazione : Marc-Olivier Méhu
Supporto tecnico e logistico : Manuel Goepfert
Aiuto per la traduzione : Arnaldo La Scala

Contatto : metmap@orbifly.com




FONTI E CREDITI :

   NOAA